createdAt,value
2023-05-22T00:04:31.406Z,13.05
2023-05-22T00:09:33.494Z,13.48
2023-05-22T00:14:35.668Z,10.95
2023-05-22T00:19:38.187Z,13.60
2023-05-22T00:24:40.501Z,11.55
2023-05-22T00:29:42.609Z,13.60
2023-05-22T00:34:44.872Z,14.60
2023-05-22T00:39:47.347Z,12.45
2023-05-22T00:44:49.871Z,15.48
2023-05-22T00:49:52.126Z,12.50
2023-05-22T00:54:54.359Z,11.32
2023-05-22T00:59:56.561Z,11.70
2023-05-22T01:04:59.137Z,14.98
2023-05-22T01:10:01.417Z,15.13
2023-05-22T01:15:12.580Z,9.95
2023-05-22T01:20:38.472Z,14.82
2023-05-22T01:26:07.965Z,15.88
2023-05-22T01:31:13.244Z,15.80
2023-05-22T01:36:20.225Z,13.80
2023-05-22T01:41:22.714Z,16.25
2023-05-22T01:46:26.867Z,15.35
2023-05-22T01:51:50.803Z,16.02
2023-05-22T01:57:18.823Z,16.40
2023-05-22T02:02:23.296Z,16.15
2023-05-22T02:07:26.269Z,16.77
2023-05-22T02:12:28.727Z,16.90
2023-05-22T02:17:30.913Z,17.38
2023-05-22T02:22:33.044Z,13.38
2023-05-22T02:27:35.310Z,17.75
2023-05-22T02:32:38.462Z,17.92
2023-05-22T02:37:40.991Z,17.48
2023-05-22T02:42:43.507Z,15.48
2023-05-22T02:47:46.981Z,17.65
2023-05-22T02:52:50.506Z,17.60
2023-05-22T02:57:52.678Z,17.50
2023-05-22T03:02:54.929Z,17.10
2023-05-22T03:07:58.030Z,18.50
2023-05-22T03:13:00.737Z,17.00
2023-05-22T03:18:03.014Z,16.80
2023-05-22T03:23:05.461Z,17.10
2023-05-22T03:28:07.668Z,17.42
2023-05-22T03:33:14.556Z,15.57
2023-05-22T03:38:16.856Z,19.15
2023-05-22T03:43:19.068Z,12.25
2023-05-22T03:48:21.376Z,17.50
2023-05-22T03:53:23.592Z,9.63
2023-05-22T03:58:26.216Z,15.70
2023-05-22T04:03:28.671Z,20.42
2023-05-22T04:08:31.067Z,21.38
2023-05-22T04:13:35.432Z,21.50
2023-05-22T04:18:37.815Z,22.10
2023-05-22T04:23:43.272Z,21.63
2023-05-22T04:28:46.040Z,20.92
2023-05-22T04:33:49.848Z,22.42
2023-05-22T04:38:52.719Z,22.90
2023-05-22T04:43:54.995Z,23.10
2023-05-22T04:49:01.987Z,22.80
2023-05-22T04:54:04.564Z,24.70
2023-05-22T04:59:09.133Z,24.70
2023-05-22T05:04:13.083Z,25.67
2023-05-22T05:09:15.372Z,25.88
2023-05-22T05:14:17.732Z,26.83
2023-05-22T05:19:22.964Z,28.50
2023-05-22T05:24:25.502Z,28.40
2023-05-22T05:29:27.813Z,32.13
2023-05-22T05:34:35.642Z,32.88
2023-05-22T05:39:39.448Z,34.30
2023-05-22T05:44:43.596Z,35.35
2023-05-22T05:49:47.241Z,35.03
2023-05-22T05:54:51.854Z,35.88
2023-05-22T05:59:56.934Z,33.80
2023-05-22T06:05:19.158Z,34.20
2023-05-22T06:10:24.850Z,32.70
2023-05-22T06:15:34.494Z,32.13
2023-05-22T06:20:36.721Z,45.13
2023-05-22T06:25:39.895Z,33.33
2023-05-22T06:30:42.175Z,34.25
2023-05-22T06:35:48.798Z,35.58
2023-05-22T06:40:51.844Z,34.13
2023-05-22T06:46:00.380Z,35.83
2023-05-22T06:51:05.474Z,29.10
2023-05-22T06:56:07.901Z,32.67
2023-05-22T07:01:23.937Z,34.83
2023-05-22T07:06:41.763Z,33.03
2023-05-22T07:11:46.557Z,34.50
2023-05-22T07:16:51.255Z,38.22
2023-05-22T07:22:00.598Z,30.80
2023-05-22T07:27:04.441Z,35.85
2023-05-22T07:32:08.457Z,37.22
2023-05-22T07:37:12.909Z,33.35
2023-05-22T07:42:16.160Z,36.53
2023-05-22T07:47:25.019Z,36.15
2023-05-22T07:52:27.415Z,31.88
2023-05-22T07:57:29.936Z,34.30
2023-05-22T08:02:36.532Z,30.95
2023-05-22T08:07:38.888Z,25.83
2023-05-22T08:12:41.013Z,26.73
2023-05-22T08:17:43.112Z,29.67
2023-05-22T08:22:45.193Z,29.90
2023-05-22T08:27:47.364Z,28.00
2023-05-22T08:32:49.539Z,22.00
2023-05-22T08:37:52.880Z,28.42
2023-05-22T08:42:57.472Z,20.98
2023-05-22T08:48:07.989Z,26.27
2023-05-22T08:53:13.436Z,25.38
2023-05-22T08:58:16.946Z,24.02
2023-05-22T09:03:21.682Z,22.83
2023-05-22T09:08:24.093Z,23.27
2023-05-22T09:13:29.125Z,22.58
2023-05-22T09:18:32.032Z,18.65
2023-05-22T09:23:34.277Z,21.58
2023-05-22T09:28:37.169Z,19.83
2023-05-22T09:33:39.333Z,20.50
2023-05-22T09:38:41.805Z,23.17
2023-05-22T09:43:50.742Z,21.10
2023-05-22T09:48:53.851Z,19.10
2023-05-22T09:54:03.491Z,20.85
2023-05-22T09:59:09.524Z,19.80
2023-05-22T10:04:16.410Z,19.00
2023-05-22T10:09:23.944Z,15.73
2023-05-22T10:14:27.359Z,19.15
2023-05-22T10:19:32.790Z,16.40
2023-05-22T10:24:35.706Z,21.08
2023-05-22T10:29:45.450Z,21.77
2023-05-22T10:34:50.320Z,18.83
2023-05-22T10:39:54.798Z,19.65
2023-05-22T10:44:56.872Z,19.90
2023-05-22T10:50:07.315Z,19.42
2023-05-22T10:55:11.140Z,17.20
2023-05-22T11:00:16.361Z,16.58
2023-05-22T11:05:22.065Z,16.38
2023-05-22T11:10:27.401Z,18.75
2023-05-22T11:15:32.417Z,13.43
2023-05-22T11:20:37.857Z,16.10
2023-05-22T11:25:41.125Z,16.45
2023-05-22T11:30:43.799Z,16.67
2023-05-22T11:35:47.849Z,12.32
2023-05-22T11:40:51.939Z,15.30
2023-05-22T11:45:54.234Z,17.63
2023-05-22T11:50:56.712Z,15.77
2023-05-22T11:56:03.417Z,15.75
2023-05-22T12:01:06.368Z,18.02
2023-05-22T12:06:09.527Z,15.68
2023-05-22T12:11:12.220Z,11.68
2023-05-22T12:16:19.658Z,11.23
2023-05-22T12:21:21.899Z,12.30
2023-05-22T12:26:24.013Z,11.45
2023-05-22T12:31:26.623Z,12.98
2023-05-22T12:36:39.625Z,17.13
2023-05-22T12:41:42.011Z,12.32
2023-05-22T12:46:44.782Z,16.58
2023-05-22T12:51:47.235Z,13.02
2023-05-22T12:56:49.312Z,16.02
2023-05-22T13:01:51.870Z,14.80
2023-05-22T13:06:54.105Z,11.25
2023-05-22T13:11:56.475Z,12.98
2023-05-22T13:16:58.794Z,16.65
2023-05-22T13:22:00.925Z,14.32
2023-05-22T13:27:03.319Z,17.25
2023-05-22T13:32:05.968Z,15.90
2023-05-22T13:37:08.895Z,12.93
2023-05-22T13:42:11.171Z,12.27
2023-05-22T13:47:13.396Z,11.23
2023-05-22T13:52:15.545Z,11.55
2023-05-22T13:57:17.869Z,16.17
2023-05-22T14:02:20.847Z,14.43
2023-05-22T14:07:23.933Z,15.90
2023-05-22T14:12:26.074Z,15.82
2023-05-22T14:17:28.732Z,16.55
2023-05-22T14:22:36.088Z,15.13
2023-05-22T14:27:43.680Z,14.77
2023-05-22T14:32:46.721Z,13.40
2023-05-22T14:37:49.056Z,14.57
2023-05-22T14:42:53.282Z,12.50
2023-05-22T14:47:56.510Z,13.48
2023-05-22T14:52:58.650Z,11.85
2023-05-22T14:58:00.880Z,10.65
2023-05-22T15:03:03.838Z,11.82
2023-05-22T15:08:06.165Z,11.50
2023-05-22T15:13:08.276Z,11.65
2023-05-22T15:18:10.588Z,10.50
2023-05-22T15:23:12.727Z,10.55
2023-05-22T15:28:14.939Z,11.75
2023-05-22T15:33:17.138Z,11.95
2023-05-22T15:38:20.039Z,11.20
2023-05-22T15:43:24.299Z,12.45
2023-05-22T15:48:28.376Z,12.50
2023-05-22T15:53:30.722Z,11.65
2023-05-22T15:58:33.126Z,12.48
2023-05-22T16:03:35.413Z,11.65
2023-05-22T16:08:37.833Z,10.25
2023-05-22T16:13:40.047Z,10.68
2023-05-22T16:18:42.285Z,11.02
2023-05-22T16:23:44.591Z,9.85
2023-05-22T16:28:46.826Z,8.90
2023-05-22T16:33:48.997Z,7.85
2023-05-22T16:38:51.061Z,9.07
2023-05-22T16:43:53.618Z,7.07
2023-05-22T16:48:55.995Z,7.57
2023-05-22T16:53:58.260Z,6.70
2023-05-22T16:59:00.925Z,5.18
2023-05-22T17:04:03.222Z,4.50
2023-05-22T17:09:05.531Z,3.80
2023-05-22T17:14:07.661Z,3.50
2023-05-22T17:19:09.890Z,3.75
2023-05-22T17:24:14.736Z,3.67
2023-05-22T17:29:17.123Z,3.40
2023-05-22T17:34:19.302Z,3.22
2023-05-22T17:39:21.842Z,3.20
2023-05-22T17:44:24.073Z,3.38
2023-05-22T17:49:26.379Z,3.70
2023-05-22T17:54:34.267Z,3.60
2023-05-22T17:59:38.450Z,3.53
2023-05-22T18:04:42.110Z,3.15
2023-05-22T18:09:44.434Z,3.33
2023-05-22T18:14:46.766Z,3.58
2023-05-22T18:19:48.954Z,3.50
2023-05-22T18:24:51.330Z,4.20
2023-05-22T18:29:55.284Z,3.78
2023-05-22T18:35:00.118Z,4.50
2023-05-22T18:40:03.359Z,5.10
2023-05-22T18:45:06.953Z,4.90
2023-05-22T18:50:09.637Z,4.40
2023-05-22T18:55:12.317Z,4.22
2023-05-22T19:00:14.915Z,4.80
2023-05-22T19:05:17.122Z,4.20
2023-05-22T19:10:19.206Z,4.88
2023-05-22T19:15:21.374Z,5.40
2023-05-22T19:20:27.107Z,5.80
2023-05-22T19:25:29.383Z,6.03
2023-05-22T19:30:31.503Z,6.18
2023-05-22T19:35:33.706Z,6.22
2023-05-22T19:40:36.312Z,5.80
2023-05-22T19:45:38.530Z,5.55
2023-05-22T19:50:41.265Z,6.20
2023-05-22T19:55:43.755Z,5.78
2023-05-22T20:00:47.577Z,6.45
2023-05-22T20:05:53.338Z,6.90
2023-05-22T20:10:55.439Z,7.40
2023-05-22T20:15:57.587Z,7.93
2023-05-22T20:20:59.826Z,8.00
2023-05-22T20:26:02.614Z,8.07
2023-05-22T20:31:05.977Z,8.55
2023-05-22T20:36:08.641Z,9.73
2023-05-22T20:41:12.800Z,9.15
2023-05-22T20:46:15.077Z,8.35
2023-05-22T20:51:20.714Z,8.85
2023-05-22T20:56:23.059Z,9.65
2023-05-22T21:01:25.403Z,8.73
2023-05-22T21:06:27.701Z,9.85
2023-05-22T21:11:29.863Z,9.77
2023-05-22T21:16:32.548Z,10.10
2023-05-22T21:21:36.266Z,11.05
2023-05-22T21:26:38.502Z,12.75
2023-05-22T21:31:40.979Z,13.75
2023-05-22T21:36:44.024Z,17.70
2023-05-22T21:41:47.551Z,19.48
2023-05-22T21:46:50.781Z,19.95
2023-05-22T21:51:52.959Z,20.00
2023-05-22T21:56:55.005Z,17.88
2023-05-22T22:01:57.858Z,15.60
2023-05-22T22:07:00.004Z,16.55
2023-05-22T22:12:02.255Z,17.67
2023-05-22T22:17:05.973Z,17.75
2023-05-22T22:22:12.307Z,16.98
2023-05-22T22:27:14.373Z,17.92
2023-05-22T22:32:16.662Z,16.63
2023-05-22T22:37:19.376Z,16.73
2023-05-22T22:42:21.489Z,14.48
2023-05-22T22:47:23.662Z,16.70
2023-05-22T22:52:25.992Z,17.40
2023-05-22T22:57:28.320Z,15.82
2023-05-22T23:02:30.601Z,17.42
2023-05-22T23:07:32.744Z,16.38
2023-05-22T23:12:36.182Z,14.65
2023-05-22T23:17:38.582Z,15.32
2023-05-22T23:22:40.900Z,13.88
2023-05-22T23:27:43.327Z,15.40
2023-05-22T23:32:45.599Z,15.13
2023-05-22T23:37:47.759Z,14.98
2023-05-22T23:42:50.859Z,16.27
2023-05-22T23:47:53.036Z,16.63
2023-05-22T23:52:55.119Z,16.95
2023-05-22T23:57:57.228Z,16.67
